sensor_id;sensor_type;location;lat;lon;timestamp;pressure;altitude;pressure_sealevel;temperature;humidity
50682;BME280;36779;52.168;20.878;2023-03-03T00:02:19;100914.45;;;-3.19;71.21
50682;BME280;36779;52.168;20.878;2023-03-03T00:05:16;100912.64;;;-3.17;71.48
50682;BME280;36779;52.168;20.878;2023-03-03T00:08:16;100910.71;;;-3.17;71.42
50682;BME280;36779;52.168;20.878;2023-03-03T00:10:57;100908.84;;;-3.14;71.57
50682;BME280;36779;52.168;20.878;2023-03-03T00:13:58;100906.45;;;-3.06;71.81
50682;BME280;36779;52.168;20.878;2023-03-03T00:16:49;100898.83;;;-3.07;71.56
50682;BME280;36779;52.168;20.878;2023-03-03T00:19:42;100890.34;;;-3.12;71.60
50682;BME280;36779;52.168;20.878;2023-03-03T00:22:37;100892.20;;;-3.15;71.64
50682;BME280;36779;52.168;20.878;2023-03-03T00:25:32;100893.70;;;-3.22;71.40
50682;BME280;36779;52.168;20.878;2023-03-03T00:28:28;100890.99;;;-3.33;71.28
50682;BME280;36779;52.168;20.878;2023-03-03T00:31:28;100890.66;;;-3.42;71.11
50682;BME280;36779;52.168;20.878;2023-03-03T00:34:29;100891.62;;;-3.48;71.22
50682;BME280;36779;52.168;20.878;2023-03-03T00:37:25;100887.21;;;-3.46;71.37
50682;BME280;36779;52.168;20.878;2023-03-03T00:40:24;100880.66;;;-3.35;71.82
50682;BME280;36779;52.168;20.878;2023-03-03T00:43:23;100869.20;;;-3.18;72.03
50682;BME280;36779;52.168;20.878;2023-03-03T00:46:19;100865.34;;;-3.04;71.98
50682;BME280;36779;52.168;20.878;2023-03-03T00:49:21;100862.30;;;-3.02;71.76
50682;BME280;36779;52.168;20.878;2023-03-03T00:52:16;100857.67;;;-3.00;71.76
50682;BME280;36779;52.168;20.878;2023-03-03T00:55:11;100855.68;;;-2.98;71.84
50682;BME280;36779;52.168;20.878;2023-03-03T00:58:08;100852.33;;;-2.93;72.05
50682;BME280;36779;52.168;20.878;2023-03-03T01:01:04;100848.88;;;-2.86;72.11
50682;BME280;36779;52.168;20.878;2023-03-03T01:04:04;100843.80;;;-2.88;71.91
50682;BME280;36779;52.168;20.878;2023-03-03T01:06:59;100842.30;;;-2.94;71.88
50682;BME280;36779;52.168;20.878;2023-03-03T01:09:50;100839.48;;;-3.06;71.66
50682;BME280;36779;52.168;20.878;2023-03-03T01:12:51;100837.97;;;-3.15;71.71
50682;BME280;36779;52.168;20.878;2023-03-03T01:15:45;100832.13;;;-3.21;71.63
50682;BME280;36779;52.168;20.878;2023-03-03T01:18:39;100829.38;;;-3.26;71.58
50682;BME280;36779;52.168;20.878;2023-03-03T01:21:47;100821.39;;;-3.22;71.80
50682;BME280;36779;52.168;20.878;2023-03-03T01:57:22;100788.20;;;-3.27;71.98
50682;BME280;36779;52.168;20.878;2023-03-03T02:00:22;100787.67;;;-3.30;72.00
50682;BME280;36779;52.168;20.878;2023-03-03T02:03:16;100787.05;;;-3.37;71.87
50682;BME280;36779;52.168;20.878;2023-03-03T02:06:40;100781.95;;;-3.39;72.03
50682;BME280;36779;52.168;20.878;2023-03-03T02:09:59;100785.05;;;-3.39;71.93
50682;BME280;36779;52.168;20.878;2023-03-03T02:12:56;100789.02;;;-3.46;71.76
50682;BME280;36779;52.168;20.878;2023-03-03T02:16:27;100787.04;;;-3.48;71.72
50682;BME280;36779;52.168;20.878;2023-03-03T02:19:25;100785.00;;;-3.50;71.72
50682;BME280;36779;52.168;20.878;2023-03-03T02:22:22;100784.24;;;-3.40;72.05
50682;BME280;36779;52.168;20.878;2023-03-03T02:25:25;100786.59;;;-3.34;71.86
50682;BME280;36779;52.168;20.878;2023-03-03T02:28:21;100788.98;;;-3.37;71.80
50682;BME280;36779;52.168;20.878;2023-03-03T02:31:16;100785.52;;;-3.42;71.76
50682;BME280;36779;52.168;20.878;2023-03-03T02:34:18;100781.98;;;-3.36;72.16
50682;BME280;36779;52.168;20.878;2023-03-03T02:37:10;100784.66;;;-3.25;72.32
50682;BME280;36779;52.168;20.878;2023-03-03T02:40:02;100788.06;;;-3.24;72.17
50682;BME280;36779;52.168;20.878;2023-03-03T02:42:58;100786.77;;;-3.21;72.33
50682;BME280;36779;52.168;20.878;2023-03-03T02:45:54;100785.14;;;-3.20;72.24
50682;BME280;36779;52.168;20.878;2023-03-03T02:48:46;100782.92;;;-3.25;72.13
50682;BME280;36779;52.168;20.878;2023-03-03T02:51:41;100780.70;;;-3.30;72.07
50682;BME280;36779;52.168;20.878;2023-03-03T02:54:35;100777.77;;;-3.26;72.11
50682;BME280;36779;52.168;20.878;2023-03-03T02:57:26;100780.56;;;-3.23;72.17
50682;BME280;36779;52.168;20.878;2023-03-03T03:00:19;100780.58;;;-3.23;72.06
50682;BME280;36779;52.168;20.878;2023-03-03T03:03:10;100779.91;;;-3.24;72.06
50682;BME280;36779;52.168;20.878;2023-03-03T03:06:01;100780.42;;;-3.19;72.14
50682;BME280;36779;52.168;20.878;2023-03-03T03:08:53;100776.66;;;-3.17;72.16
50682;BME280;36779;52.168;20.878;2023-03-03T03:11:50;100775.23;;;-3.07;72.30
50682;BME280;36779;52.168;20.878;2023-03-03T03:14:43;100771.20;;;-3.03;72.38
50682;BME280;36779;52.168;20.878;2023-03-03T03:17:34;100768.96;;;-2.95;72.50
50682;BME280;36779;52.168;20.878;2023-03-03T03:20:26;100769.41;;;-2.94;72.45
50682;BME280;36779;52.168;20.878;2023-03-03T03:23:22;100770.47;;;-2.98;72.23
50682;BME280;36779;52.168;20.878;2023-03-03T03:26:13;100769.50;;;-3.00;72.33
50682;BME280;36779;52.168;20.878;2023-03-03T03:29:04;100767.60;;;-3.00;72.41
50682;BME280;36779;52.168;20.878;2023-03-03T03:32:02;100762.39;;;-3.04;72.28
50682;BME280;36779;52.168;20.878;2023-03-03T03:35:00;100761.81;;;-3.07;72.25
50682;BME280;36779;52.168;20.878;2023-03-03T03:37:54;100755.70;;;-3.11;72.23
50682;BME280;36779;52.168;20.878;2023-03-03T03:40:55;100757.27;;;-3.11;72.26
50682;BME280;36779;52.168;20.878;2023-03-03T03:43:49;100758.53;;;-3.12;72.20
50682;BME280;36779;52.168;20.878;2023-03-03T03:46:40;100763.53;;;-3.11;72.25
50682;BME280;36779;52.168;20.878;2023-03-03T03:49:40;100762.80;;;-3.10;72.22
50682;BME280;36779;52.168;20.878;2023-03-03T03:52:30;100763.41;;;-3.04;72.39
50682;BME280;36779;52.168;20.878;2023-03-03T03:55:22;100764.17;;;-3.01;72.33
50682;BME280;36779;52.168;20.878;2023-03-03T03:58:15;100760.69;;;-2.97;72.39
50682;BME280;36779;52.168;20.878;2023-03-03T04:01:11;100753.94;;;-2.94;72.34
50682;BME280;36779;52.168;20.878;2023-03-03T04:04:03;100747.73;;;-2.88;72.60
50682;BME280;36779;52.168;20.878;2023-03-03T04:07:19;100736.84;;;-2.81;72.67
50682;BME280;36779;52.168;20.878;2023-03-03T04:10:12;100731.73;;;-2.76;72.77
50682;BME280;36779;52.168;20.878;2023-03-03T04:13:03;100737.19;;;-2.77;72.56
50682;BME280;36779;52.168;20.878;2023-03-03T04:16:11;100735.40;;;-2.84;72.53
50682;BME280;36779;52.168;20.878;2023-03-03T04:19:07;100736.86;;;-2.85;72.61
50682;BME280;36779;52.168;20.878;2023-03-03T04:22:01;100735.65;;;-2.90;72.50
50682;BME280;36779;52.168;20.878;2023-03-03T04:25:00;100735.05;;;-2.92;72.49
50682;BME280;36779;52.168;20.878;2023-03-03T04:28:01;100734.48;;;-2.94;72.35
50682;BME280;36779;52.168;20.878;2023-03-03T04:31:04;100730.14;;;-2.98;72.48
50682;BME280;36779;52.168;20.878;2023-03-03T04:33:59;100724.55;;;-2.94;72.53
50682;BME280;36779;52.168;20.878;2023-03-03T04:36:51;100720.89;;;-2.90;72.61
50682;BME280;36779;52.168;20.878;2023-03-03T04:39:46;100723.98;;;-2.85;72.63
50682;BME280;36779;52.168;20.878;2023-03-03T04:42:38;100719.56;;;-2.80;72.83
50682;BME280;36779;52.168;20.878;2023-03-03T04:45:34;100716.28;;;-2.73;72.79
50682;BME280;36779;52.168;20.878;2023-03-03T04:48:33;100715.63;;;-2.69;72.85
50682;BME280;36779;52.168;20.878;2023-03-03T04:51:47;100712.54;;;-2.67;72.84
50682;BME280;36779;52.168;20.878;2023-03-03T04:54:39;100710.58;;;-2.69;72.81
50682;BME280;36779;52.168;20.878;2023-03-03T04:57:31;100706.14;;;-2.75;72.74
50682;BME280;36779;52.168;20.878;2023-03-03T05:00:24;100707.24;;;-2.80;72.73
50682;BME280;36779;52.168;20.878;2023-03-03T05:03:18;100707.10;;;-2.89;72.56
50682;BME280;36779;52.168;20.878;2023-03-03T05:06:14;100703.46;;;-2.97;72.63
50682;BME280;36779;52.168;20.878;2023-03-03T05:09:27;100698.54;;;-3.00;72.85
50682;BME280;36779;52.168;20.878;2023-03-03T05:12:21;100693.76;;;-3.02;72.68
50682;BME280;36779;52.168;20.878;2023-03-03T05:15:16;100696.26;;;-3.03;72.67
50682;BME280;36779;52.168;20.878;2023-03-03T05:18:45;100700.73;;;-3.06;72.63
50682;BME280;36779;52.168;20.878;2023-03-03T05:21:37;100705.77;;;-3.06;72.70
50682;BME280;36779;52.168;20.878;2023-03-03T05:24:51;100708.22;;;-2.98;72.79
50682;BME280;36779;52.168;20.878;2023-03-03T05:28:02;100706.42;;;-2.89;72.96
50682;BME280;36779;52.168;20.878;2023-03-03T05:30:58;100704.45;;;-2.84;72.79
50682;BME280;36779;52.168;20.878;2023-03-03T05:33:50;100702.64;;;-2.78;72.89
50682;BME280;36779;52.168;20.878;2023-03-03T05:36:40;100703.77;;;-2.69;72.90
50682;BME280;36779;52.168;20.878;2023-03-03T05:39:22;100707.46;;;-2.67;72.89
50682;BME280;36779;52.168;20.878;2023-03-03T05:42:12;100699.97;;;-2.62;73.01
50682;BME280;36779;52.168;20.878;2023-03-03T05:45:09;100702.56;;;-2.54;73.01
50682;BME280;36779;52.168;20.878;2023-03-03T05:48:00;100703.94;;;-2.50;73.01
50682;BME280;36779;52.168;20.878;2023-03-03T05:50:50;100703.48;;;-2.47;73.02
50682;BME280;36779;52.168;20.878;2023-03-03T05:53:43;100704.09;;;-2.50;72.96
50682;BME280;36779;52.168;20.878;2023-03-03T05:56:34;100707.03;;;-2.49;73.07
50682;BME280;36779;52.168;20.878;2023-03-03T05:59:30;100707.02;;;-2.49;72.96
50682;BME280;36779;52.168;20.878;2023-03-03T06:02:17;100703.45;;;-2.47;73.07
50682;BME280;36779;52.168;20.878;2023-03-03T06:05:11;100706.85;;;-2.41;73.16
50682;BME280;36779;52.168;20.878;2023-03-03T06:08:10;100700.60;;;-2.34;73.16
50682;BME280;36779;52.168;20.878;2023-03-03T06:11:03;100697.48;;;-2.27;73.20
50682;BME280;36779;52.168;20.878;2023-03-03T06:13:56;100689.94;;;-2.23;73.13
50682;BME280;36779;52.168;20.878;2023-03-03T06:16:47;100687.79;;;-2.18;73.13
50682;BME280;36779;52.168;20.878;2023-03-03T06:19:37;100688.73;;;-2.12;73.23
50682;BME280;36779;52.168;20.878;2023-03-03T06:22:31;100693.54;;;-2.07;73.24
50682;BME280;36779;52.168;20.878;2023-03-03T06:25:21;100697.98;;;-2.01;73.27
50682;BME280;36779;52.168;20.878;2023-03-03T06:28:11;100700.19;;;-1.93;73.34
50682;BME280;36779;52.168;20.878;2023-03-03T06:31:01;100703.79;;;-1.88;73.19
50682;BME280;36779;52.168;20.878;2023-03-03T06:33:51;100712.29;;;-1.87;73.16
50682;BME280;36779;52.168;20.878;2023-03-03T06:36:42;100713.62;;;-1.83;73.28
50682;BME280;36779;52.168;20.878;2023-03-03T06:39:35;100716.14;;;-1.81;73.32
50682;BME280;36779;52.168;20.878;2023-03-03T06:42:24;100709.41;;;-1.82;73.28
50682;BME280;36779;52.168;20.878;2023-03-03T06:45:19;100711.81;;;-1.85;73.26
50682;BME280;36779;52.168;20.878;2023-03-03T06:48:10;100712.50;;;-1.88;73.17
50682;BME280;36779;52.168;20.878;2023-03-03T06:51:01;100714.23;;;-1.92;73.12
50682;BME280;36779;52.168;20.878;2023-03-03T06:53:53;100709.52;;;-1.96;73.18
50682;BME280;36779;52.168;20.878;2023-03-03T06:56:43;100717.35;;;-1.95;73.27
50682;BME280;36779;52.168;20.878;2023-03-03T06:59:33;100715.14;;;-1.93;73.22
50682;BME280;36779;52.168;20.878;2023-03-03T07:02:23;100711.13;;;-1.92;73.24
50682;BME280;36779;52.168;20.878;2023-03-03T07:05:15;100708.28;;;-1.92;73.26
50682;BME280;36779;52.168;20.878;2023-03-03T07:08:17;100706.64;;;-1.90;73.22
50682;BME280;36779;52.168;20.878;2023-03-03T07:11:11;100710.16;;;-1.83;73.40
50682;BME280;36779;52.168;20.878;2023-03-03T07:14:20;100706.27;;;-1.72;73.57
50682;BME280;36779;52.168;20.878;2023-03-03T07:17:16;100695.59;;;-1.60;73.75
50682;BME280;36779;52.168;20.878;2023-03-03T07:20:23;100688.23;;;-1.49;73.69
50682;BME280;36779;52.168;20.878;2023-03-03T07:23:20;100690.84;;;-1.43;73.69
50682;BME280;36779;52.168;20.878;2023-03-03T07:26:13;100693.06;;;-1.38;73.55
50682;BME280;36779;52.168;20.878;2023-03-03T07:29:24;100693.88;;;-1.37;73.50
50682;BME280;36779;52.168;20.878;2023-03-03T07:32:38;100690.65;;;-1.38;73.57
50682;BME280;36779;52.168;20.878;2023-03-03T07:35:36;100691.50;;;-1.38;73.62
50682;BME280;36779;52.168;20.878;2023-03-03T07:38:37;100687.83;;;-1.38;73.63
50682;BME280;36779;52.168;20.878;2023-03-03T07:41:30;100687.59;;;-1.36;73.71
50682;BME280;36779;52.168;20.878;2023-03-03T07:44:28;100696.61;;;-1.32;73.64
50682;BME280;36779;52.168;20.878;2023-03-03T07:47:24;100704.28;;;-1.25;73.70
50682;BME280;36779;52.168;20.878;2023-03-03T07:50:17;100707.14;;;-1.20;73.64
50682;BME280;36779;52.168;20.878;2023-03-03T07:53:19;100714.50;;;-1.10;73.85
50682;BME280;36779;52.168;20.878;2023-03-03T07:56:26;100710.27;;;-0.99;73.81
50682;BME280;36779;52.168;20.878;2023-03-03T07:59:21;100714.42;;;-0.92;73.90
50682;BME280;36779;52.168;20.878;2023-03-03T08:02:33;100716.55;;;-0.86;73.92
50682;BME280;36779;52.168;20.878;2023-03-03T08:05:34;100714.30;;;-0.80;73.88
50682;BME280;36779;52.168;20.878;2023-03-03T08:08:33;100711.71;;;-0.71;73.92
50682;BME280;36779;52.168;20.878;2023-03-03T08:11:25;100715.13;;;-0.63;73.82
50682;BME280;36779;52.168;20.878;2023-03-03T08:14:15;100713.33;;;-0.59;73.89
50682;BME280;36779;52.168;20.878;2023-03-03T08:17:16;100713.95;;;-0.54;73.85
50682;BME280;36779;52.168;20.878;2023-03-03T08:20:46;100713.55;;;-0.53;73.72
50682;BME280;36779;52.168;20.878;2023-03-03T08:23:36;100712.77;;;-0.55;73.84
50682;BME280;36779;52.168;20.878;2023-03-03T08:26:27;100715.30;;;-0.53;73.98
50682;BME280;36779;52.168;20.878;2023-03-03T08:29:17;100725.48;;;-0.45;74.13
50682;BME280;36779;52.168;20.878;2023-03-03T08:32:06;100723.67;;;-0.34;74.13
50682;BME280;36779;52.168;20.878;2023-03-03T08:34:56;100725.60;;;-0.28;73.92
50682;BME280;36779;52.168;20.878;2023-03-03T08:37:46;100725.64;;;-0.25;73.86
50682;BME280;36779;52.168;20.878;2023-03-03T08:40:34;100731.92;;;-0.22;73.87
50682;BME280;36779;52.168;20.878;2023-03-03T08:43:23;100736.60;;;-0.15;73.95
50682;BME280;36779;52.168;20.878;2023-03-03T08:46:13;100735.96;;;-0.06;74.06
50682;BME280;36779;52.168;20.878;2023-03-03T08:49:07;100734.08;;;-0.01;73.92
50682;BME280;36779;52.168;20.878;2023-03-03T08:51:58;100734.22;;;-0.00;73.90
50682;BME280;36779;52.168;20.878;2023-03-03T08:54:50;100740.30;;;-0.03;73.86
50682;BME280;36779;52.168;20.878;2023-03-03T08:57:39;100751.41;;;-0.11;73.73
50682;BME280;36779;52.168;20.878;2023-03-03T09:00:28;100753.88;;;-0.18;73.79
50682;BME280;36779;52.168;20.878;2023-03-03T09:03:17;100758.35;;;-0.19;73.85
50682;BME280;36779;52.168;20.878;2023-03-03T09:06:07;100762.02;;;-0.23;73.66
50682;BME280;36779;52.168;20.878;2023-03-03T09:08:56;100758.90;;;-0.27;73.69
50682;BME280;36779;52.168;20.878;2023-03-03T09:11:46;100757.91;;;-0.31;73.66
50682;BME280;36779;52.168;20.878;2023-03-03T09:14:36;100765.73;;;-0.30;73.67
50682;BME280;36779;52.168;20.878;2023-03-03T09:17:29;100763.65;;;-0.27;73.71
50682;BME280;36779;52.168;20.878;2023-03-03T09:20:44;100764.01;;;-0.24;73.85
50682;BME280;36779;52.168;20.878;2023-03-03T09:23:36;100762.66;;;-0.18;73.90
50682;BME280;36779;52.168;20.878;2023-03-03T09:26:28;100753.59;;;-0.22;73.72
50682;BME280;36779;52.168;20.878;2023-03-03T09:29:24;100738.20;;;-0.25;73.75
50682;BME280;36779;52.168;20.878;2023-03-03T09:32:25;100740.44;;;-0.28;73.90
50682;BME280;36779;52.168;20.878;2023-03-03T09:35:32;100730.71;;;-0.29;73.92
50682;BME280;36779;52.168;20.878;2023-03-03T09:38:29;100726.06;;;-0.23;73.84
50682;BME280;36779;52.168;20.878;2023-03-03T09:41:45;100716.41;;;-0.22;73.90
50682;BME280;36779;52.168;20.878;2023-03-03T09:48:36;100723.97;;;-0.14;73.91
50682;BME280;36779;52.168;20.878;2023-03-03T09:51:50;100722.18;;;-0.10;73.93
50682;BME280;36779;52.168;20.878;2023-03-03T09:54:53;100714.55;;;-0.05;73.96
50682;BME280;36779;52.168;20.878;2023-03-03T09:57:56;100707.33;;;-0.10;73.88
50682;BME280;36779;52.168;20.878;2023-03-03T10:01:08;100705.01;;;-0.12;74.11
50682;BME280;36779;52.168;20.878;2023-03-03T10:04:14;100701.81;;;-0.08;74.11
50682;BME280;36779;52.168;20.878;2023-03-03T10:07:18;100702.10;;;-0.04;74.18
50682;BME280;36779;52.168;20.878;2023-03-03T10:10:36;100693.88;;;-0.01;74.21
50682;BME280;36779;52.168;20.878;2023-03-03T10:13:35;100697.64;;;0.01;74.01
50682;BME280;36779;52.168;20.878;2023-03-03T10:16:42;100698.92;;;-0.04;73.91
50682;BME280;36779;52.168;20.878;2023-03-03T10:19:39;100692.57;;;-0.06;73.92
50682;BME280;36779;52.168;20.878;2023-03-03T10:22:37;100691.49;;;-0.02;74.04
50682;BME280;36779;52.168;20.878;2023-03-03T10:25:32;100694.36;;;0.03;74.21
50682;BME280;36779;52.168;20.878;2023-03-03T10:29:04;100696.95;;;0.03;74.02
50682;BME280;36779;52.168;20.878;2023-03-03T10:32:17;100697.27;;;0.01;74.23
50682;BME280;36779;52.168;20.878;2023-03-03T10:38:33;100699.08;;;-0.04;74.17
50682;BME280;36779;52.168;20.878;2023-03-03T10:41:41;100696.67;;;-0.07;74.11
50682;BME280;36779;52.168;20.878;2023-03-03T10:44:47;100701.11;;;-0.02;74.18
50682;BME280;36779;52.168;20.878;2023-03-03T10:47:54;100712.83;;;0.01;74.12
50682;BME280;36779;52.168;20.878;2023-03-03T10:50:55;100716.01;;;0.01;73.94
50682;BME280;36779;52.168;20.878;2023-03-03T10:54:05;100718.34;;;-0.01;73.98
50682;BME280;36779;52.168;20.878;2023-03-03T10:57:03;100718.21;;;-0.02;73.99
50682;BME280;36779;52.168;20.878;2023-03-03T11:00:17;100715.62;;;-0.05;73.96
50682;BME280;36779;52.168;20.878;2023-03-03T11:03:33;100716.80;;;-0.08;73.92
50682;BME280;36779;52.168;20.878;2023-03-03T11:06:30;100717.52;;;-0.05;74.00
50682;BME280;36779;52.168;20.878;2023-03-03T11:09:38;100710.85;;;-0.04;74.10
50682;BME280;36779;52.168;20.878;2023-03-03T11:12:55;100706.81;;;-0.04;74.13
50682;BME280;36779;52.168;20.878;2023-03-03T11:16:08;100705.37;;;-0.06;74.16
50682;BME280;36779;52.168;20.878;2023-03-03T11:19:20;100717.79;;;-0.10;74.24
50682;BME280;36779;52.168;20.878;2023-03-03T11:22:24;100724.66;;;-0.11;74.11
50682;BME280;36779;52.168;20.878;2023-03-03T11:25:23;100731.41;;;-0.16;73.90
50682;BME280;36779;52.168;20.878;2023-03-03T11:28:30;100731.77;;;-0.22;73.80
50682;BME280;36779;52.168;20.878;2023-03-03T11:31:32;100727.94;;;-0.26;73.93
50682;BME280;36779;52.168;20.878;2023-03-03T11:34:42;100721.66;;;-0.26;74.05
50682;BME280;36779;52.168;20.878;2023-03-03T11:37:39;100710.17;;;-0.23;74.05
50682;BME280;36779;52.168;20.878;2023-03-03T11:40:39;100703.50;;;-0.17;74.08
50682;BME280;36779;52.168;20.878;2023-03-03T11:43:38;100698.58;;;-0.12;74.19
50682;BME280;36779;52.168;20.878;2023-03-03T11:46:35;100692.56;;;-0.11;74.16
50682;BME280;36779;52.168;20.878;2023-03-03T11:49:34;100689.05;;;-0.14;74.22
50682;BME280;36779;52.168;20.878;2023-03-03T11:52:30;100689.55;;;-0.17;74.11
50682;BME280;36779;52.168;20.878;2023-03-03T11:55:40;100685.64;;;-0.18;74.15
50682;BME280;36779;52.168;20.878;2023-03-03T11:58:36;100678.18;;;-0.23;74.05
50682;BME280;36779;52.168;20.878;2023-03-03T12:01:32;100681.34;;;-0.29;73.92
50682;BME280;36779;52.168;20.878;2023-03-03T12:04:28;100690.44;;;-0.36;73.82
50682;BME280;36779;52.168;20.878;2023-03-03T12:07:25;100695.52;;;-0.36;74.07
50682;BME280;36779;52.168;20.878;2023-03-03T12:10:23;100699.25;;;-0.34;74.17
50682;BME280;36779;52.168;20.878;2023-03-03T12:13:25;100694.10;;;-0.33;74.04
50682;BME280;36779;52.168;20.878;2023-03-03T12:16:25;100699.70;;;-0.33;74.12
50682;BME280;36779;52.168;20.878;2023-03-03T12:19:32;100702.17;;;-0.33;74.06
50682;BME280;36779;52.168;20.878;2023-03-03T12:22:31;100698.84;;;-0.36;74.12
50682;BME280;36779;52.168;20.878;2023-03-03T12:25:29;100691.96;;;-0.41;73.99
50682;BME280;36779;52.168;20.878;2023-03-03T12:28:23;100689.89;;;-0.45;73.98
50682;BME280;36779;52.168;20.878;2023-03-03T12:31:24;100692.20;;;-0.46;74.10
50682;BME280;36779;52.168;20.878;2023-03-03T12:34:23;100693.41;;;-0.45;74.16
50682;BME280;36779;52.168;20.878;2023-03-03T12:37:23;100695.45;;;-0.44;74.13
50682;BME280;36779;52.168;20.878;2023-03-03T12:40:20;100694.09;;;-0.42;74.03
50682;BME280;36779;52.168;20.878;2023-03-03T12:43:20;100693.76;;;-0.39;74.13
50682;BME280;36779;52.168;20.878;2023-03-03T12:46:20;100692.13;;;-0.38;74.11
50682;BME280;36779;52.168;20.878;2023-03-03T12:49:17;100692.38;;;-0.39;74.14
50682;BME280;36779;52.168;20.878;2023-03-03T12:52:18;100695.83;;;-0.45;74.07
50682;BME280;36779;52.168;20.878;2023-03-03T12:55:35;100695.02;;;-0.46;74.23
50682;BME280;36779;52.168;20.878;2023-03-03T12:58:39;100691.79;;;-0.48;74.10
50682;BME280;36779;52.168;20.878;2023-03-03T13:01:59;100694.21;;;-0.51;74.01
50682;BME280;36779;52.168;20.878;2023-03-03T13:05:01;100693.69;;;-0.48;74.13
50682;BME280;36779;52.168;20.878;2023-03-03T13:08:14;100692.33;;;-0.45;74.22
50682;BME280;36779;52.168;20.878;2023-03-03T13:11:38;100685.73;;;-0.45;74.08
50682;BME280;36779;52.168;20.878;2023-03-03T13:14:36;100688.82;;;-0.45;74.20
50682;BME280;36779;52.168;20.878;2023-03-03T13:17:33;100690.08;;;-0.45;74.20
50682;BME280;36779;52.168;20.878;2023-03-03T13:20:33;100694.76;;;-0.48;74.30
50682;BME280;36779;52.168;20.878;2023-03-03T13:23:33;100691.55;;;-0.53;74.06
50682;BME280;36779;52.168;20.878;2023-03-03T13:26:30;100689.50;;;-0.57;74.16
50682;BME280;36779;52.168;20.878;2023-03-03T13:29:26;100691.84;;;-0.55;74.26
50682;BME280;36779;52.168;20.878;2023-03-03T13:32:21;100685.59;;;-0.56;74.16
50682;BME280;36779;52.168;20.878;2023-03-03T13:35:23;100685.64;;;-0.57;74.24
50682;BME280;36779;52.168;20.878;2023-03-03T13:38:21;100684.85;;;-0.55;74.16
50682;BME280;36779;52.168;20.878;2023-03-03T13:41:19;100682.81;;;-0.53;74.29
50682;BME280;36779;52.168;20.878;2023-03-03T13:44:18;100675.15;;;-0.50;74.23
50682;BME280;36779;52.168;20.878;2023-03-03T13:47:15;100676.63;;;-0.48;74.24
50682;BME280;36779;52.168;20.878;2023-03-03T13:50:22;100672.48;;;-0.49;74.21
50682;BME280;36779;52.168;20.878;2023-03-03T13:53:29;100667.66;;;-0.54;74.32
50682;BME280;36779;52.168;20.878;2023-03-03T13:56:41;100662.95;;;-0.57;74.21
50682;BME280;36779;52.168;20.878;2023-03-03T13:59:40;100661.78;;;-0.64;74.11
50682;BME280;36779;52.168;20.878;2023-03-03T14:02:54;100659.89;;;-0.68;74.19
50682;BME280;36779;52.168;20.878;2023-03-03T14:05:49;100657.90;;;-0.66;74.20
50682;BME280;36779;52.168;20.878;2023-03-03T14:08:50;100656.54;;;-0.61;74.37
50682;BME280;36779;52.168;20.878;2023-03-03T14:11:50;100654.05;;;-0.57;74.27
50682;BME280;36779;52.168;20.878;2023-03-03T14:14:52;100658.08;;;-0.54;74.33
50682;BME280;36779;52.168;20.878;2023-03-03T14:17:54;100655.23;;;-0.53;74.28
50682;BME280;36779;52.168;20.878;2023-03-03T14:20:52;100654.79;;;-0.51;74.38
50682;BME280;36779;52.168;20.878;2023-03-03T14:23:50;100656.60;;;-0.56;74.13
50682;BME280;36779;52.168;20.878;2023-03-03T14:26:47;100660.60;;;-0.59;74.23
50682;BME280;36779;52.168;20.878;2023-03-03T14:29:40;100658.62;;;-0.61;74.46
50682;BME280;36779;52.168;20.878;2023-03-03T14:32:38;100659.08;;;-0.62;74.37
50682;BME280;36779;52.168;20.878;2023-03-03T14:35:40;100661.43;;;-0.64;74.30
50682;BME280;36779;52.168;20.878;2023-03-03T14:38:46;100659.06;;;-0.65;74.32
50682;BME280;36779;52.168;20.878;2023-03-03T14:41:40;100656.94;;;-0.62;74.43
50682;BME280;36779;52.168;20.878;2023-03-03T14:44:35;100657.44;;;-0.61;74.39
50682;BME280;36779;52.168;20.878;2023-03-03T14:47:25;100660.94;;;-0.67;74.13
50682;BME280;36779;52.168;20.878;2023-03-03T14:50:32;100654.94;;;-0.70;74.15
50682;BME280;36779;52.168;20.878;2023-03-03T14:53:32;100650.20;;;-0.73;74.29
50682;BME280;36779;52.168;20.878;2023-03-03T14:56:24;100648.00;;;-0.77;74.19
50682;BME280;36779;52.168;20.878;2023-03-03T14:59:19;100647.15;;;-0.78;74.41
50682;BME280;36779;52.168;20.878;2023-03-03T15:02:31;100645.26;;;-0.78;74.34
50682;BME280;36779;52.168;20.878;2023-03-03T15:05:24;100650.33;;;-0.81;74.16
50682;BME280;36779;52.168;20.878;2023-03-03T15:08:14;100649.94;;;-0.84;74.25
50682;BME280;36779;52.168;20.878;2023-03-03T15:11:25;100648.17;;;-0.80;74.48
50682;BME280;36779;52.168;20.878;2023-03-03T15:14:16;100649.52;;;-0.76;74.51
50682;BME280;36779;52.168;20.878;2023-03-03T15:17:25;100654.77;;;-0.73;74.42
50682;BME280;36779;52.168;20.878;2023-03-03T15:20:23;100652.34;;;-0.70;74.37
50682;BME280;36779;52.168;20.878;2023-03-03T15:23:44;100653.83;;;-0.68;74.45
50682;BME280;36779;52.168;20.878;2023-03-03T15:26:43;100649.36;;;-0.70;74.45
50682;BME280;36779;52.168;20.878;2023-03-03T15:29:36;100651.27;;;-0.70;74.51
50682;BME280;36779;52.168;20.878;2023-03-03T15:32:30;100653.34;;;-0.69;74.61
50682;BME280;36779;52.168;20.878;2023-03-03T15:35:33;100654.50;;;-0.72;74.60
50682;BME280;36779;52.168;20.878;2023-03-03T15:38:38;100653.77;;;-0.74;74.56
50682;BME280;36779;52.168;20.878;2023-03-03T15:41:39;100654.15;;;-0.78;74.42
50682;BME280;36779;52.168;20.878;2023-03-03T15:45:05;100651.11;;;-0.80;74.39
50682;BME280;36779;52.168;20.878;2023-03-03T15:48:11;100647.96;;;-0.80;74.49
50682;BME280;36779;52.168;20.878;2023-03-03T15:51:09;100645.78;;;-0.78;74.52
50682;BME280;36779;52.168;20.878;2023-03-03T15:54:21;100644.50;;;-0.77;74.47
50682;BME280;36779;52.168;20.878;2023-03-03T15:57:20;100639.91;;;-0.76;74.51
50682;BME280;36779;52.168;20.878;2023-03-03T16:00:25;100638.86;;;-0.73;74.71
50682;BME280;36779;52.168;20.878;2023-03-03T16:03:26;100637.01;;;-0.71;74.53